createdAt,value
2022-10-01T00:02:18.647Z,1.30
2022-10-01T00:04:48.089Z,1.13
2022-10-01T00:07:18.411Z,0.97
2022-10-01T00:09:48.809Z,1.23
2022-10-01T00:12:18.275Z,1.60
2022-10-01T00:14:47.705Z,0.90
2022-10-01T00:17:17.160Z,1.70
2022-10-01T00:19:46.614Z,1.13
2022-10-01T00:22:16.157Z,1.10
2022-10-01T00:24:47.335Z,1.17
2022-10-01T00:27:16.816Z,1.37
2022-10-01T00:29:46.246Z,1.43
2022-10-01T00:32:16.069Z,1.30
2022-10-01T00:34:45.765Z,1.40
2022-10-01T00:37:15.559Z,1.20
2022-10-01T00:39:45.223Z,1.30
2022-10-01T00:42:25.481Z,0.90
2022-10-01T00:44:55.486Z,1.33
2022-10-01T00:47:41.842Z,1.00
2022-10-01T00:50:28.240Z,1.07
2022-10-01T00:53:04.885Z,0.90
2022-10-01T00:55:44.999Z,2.20
2022-10-01T00:58:16.699Z,0.87
2022-10-01T01:00:47.107Z,0.80
2022-10-01T01:03:17.297Z,1.23
2022-10-01T01:05:47.816Z,1.27
2022-10-01T01:08:18.264Z,0.80
2022-10-01T01:11:04.049Z,0.90
2022-10-01T01:14:02.445Z,1.10
2022-10-01T01:16:42.364Z,1.00
2022-10-01T01:19:51.609Z,1.30
2022-10-01T01:22:26.036Z,0.70
2022-10-01T01:25:08.696Z,0.63
2022-10-01T01:27:45.521Z,0.83
2022-10-01T01:30:18.591Z,0.60
2022-10-01T01:32:55.402Z,0.80
2022-10-01T01:35:31.101Z,0.90
2022-10-01T01:38:05.143Z,1.03
2022-10-01T01:40:38.707Z,0.97
2022-10-01T01:43:12.753Z,1.00
2022-10-01T01:45:43.874Z,0.90
2022-10-01T01:48:14.831Z,1.00
2022-10-01T01:51:00.650Z,1.10
2022-10-01T01:53:32.204Z,1.37
2022-10-01T01:56:02.146Z,1.10
2022-10-01T01:58:34.058Z,0.87
2022-10-01T02:01:05.174Z,1.23
2022-10-01T02:03:36.549Z,0.70
2022-10-01T02:06:34.277Z,1.13
2022-10-01T02:09:32.406Z,0.77
2022-10-01T02:12:19.706Z,0.60
2022-10-01T02:15:10.635Z,1.30
2022-10-01T02:17:48.944Z,0.80
2022-10-01T02:20:25.911Z,0.98
2022-10-01T02:22:59.964Z,1.00
2022-10-01T02:25:34.610Z,0.73
2022-10-01T02:28:08.725Z,1.53
2022-10-01T02:30:41.839Z,0.80
2022-10-01T02:33:14.636Z,1.20
2022-10-01T02:35:47.803Z,0.97
2022-10-01T02:38:19.844Z,1.13
2022-10-01T02:40:53.177Z,0.80
2022-10-01T02:43:31.614Z,0.70
2022-10-01T02:46:15.153Z,1.10
2022-10-01T02:48:45.185Z,0.77
2022-10-01T02:51:34.658Z,0.90
2022-10-01T02:54:17.591Z,0.60
2022-10-01T02:57:05.832Z,0.60
2022-10-01T02:59:35.264Z,1.00
2022-10-01T03:02:05.363Z,0.80
2022-10-01T03:04:34.857Z,1.10
2022-10-01T03:07:04.494Z,1.07
2022-10-01T03:09:36.807Z,0.83
2022-10-01T03:12:06.771Z,0.93
2022-10-01T03:14:36.267Z,0.90
2022-10-01T03:17:07.057Z,0.90
2022-10-01T03:19:36.485Z,0.93
2022-10-01T03:22:06.006Z,1.00
2022-10-01T03:24:35.771Z,0.67
2022-10-01T03:27:05.227Z,0.90
2022-10-01T03:29:34.658Z,0.90
2022-10-01T03:32:04.285Z,1.20
2022-10-01T03:34:33.717Z,0.87
2022-10-01T03:37:03.168Z,0.60
2022-10-01T03:39:32.599Z,0.80
2022-10-01T03:42:02.049Z,1.00
2022-10-01T03:44:31.576Z,0.63
2022-10-01T03:47:01.006Z,0.63
2022-10-01T03:49:30.529Z,0.83
2022-10-01T03:51:59.951Z,0.80
2022-10-01T03:54:31.465Z,0.73
2022-10-01T03:57:00.946Z,1.30
2022-10-01T03:59:30.397Z,1.10
2022-10-01T04:02:00.017Z,0.90
2022-10-01T04:04:29.555Z,0.90
2022-10-01T04:06:58.979Z,1.40
2022-10-01T04:09:28.429Z,0.90
2022-10-01T04:11:57.859Z,1.40
2022-10-01T04:14:27.375Z,1.40
2022-10-01T04:16:56.802Z,1.70
2022-10-01T04:19:26.249Z,1.37
2022-10-01T04:21:55.677Z,1.20
2022-10-01T04:24:25.128Z,0.97
2022-10-01T04:26:54.577Z,1.00
2022-10-01T04:29:24.025Z,1.10
2022-10-01T04:31:53.770Z,1.40
2022-10-01T04:34:24.889Z,1.33
2022-10-01T04:36:54.321Z,1.23
2022-10-01T04:39:23.840Z,1.20
2022-10-01T04:41:53.276Z,1.30
2022-10-01T04:44:23.949Z,1.00
2022-10-01T04:46:53.468Z,1.03
2022-10-01T04:49:22.931Z,1.17
2022-10-01T04:51:52.362Z,1.20
2022-10-01T04:54:21.815Z,1.20
2022-10-01T04:56:51.244Z,1.30
2022-10-01T04:59:21.164Z,1.43
2022-10-01T05:01:50.647Z,1.50
2022-10-01T05:04:20.122Z,1.27
2022-10-01T05:06:49.553Z,1.67
2022-10-01T05:09:19.006Z,1.73
2022-10-01T05:11:50.071Z,1.60
2022-10-01T05:14:20.758Z,1.50
2022-10-01T05:16:50.187Z,1.50
2022-10-01T05:19:20.208Z,2.63
2022-10-01T05:21:51.279Z,1.90
2022-10-01T05:24:20.776Z,1.90
2022-10-01T05:26:50.196Z,1.43
2022-10-01T05:29:19.641Z,1.50
2022-10-01T05:31:49.369Z,1.87
2022-10-01T05:34:18.873Z,2.37
2022-10-01T05:36:48.297Z,1.60
2022-10-01T05:39:17.742Z,1.57
2022-10-01T05:41:47.172Z,1.73
2022-10-01T05:44:16.691Z,2.30
2022-10-01T05:46:46.120Z,1.73
2022-10-01T05:49:16.318Z,1.80
2022-10-01T05:51:46.122Z,1.67
2022-10-01T05:54:17.205Z,1.90
2022-10-01T05:56:47.025Z,1.80
2022-10-01T05:59:16.476Z,1.43
2022-10-01T06:01:46.586Z,1.17
2022-10-01T06:04:18.185Z,1.50
2022-10-01T06:06:47.695Z,1.27
2022-10-01T06:09:17.216Z,1.20
2022-10-01T06:11:48.293Z,1.57
2022-10-01T06:14:18.381Z,1.50
2022-10-01T06:16:47.907Z,1.70
2022-10-01T06:19:17.415Z,1.70
2022-10-01T06:21:46.860Z,1.82
2022-10-01T06:24:16.307Z,1.53
2022-10-01T06:26:46.172Z,1.40
2022-10-01T06:29:15.685Z,1.40
2022-10-01T06:31:45.184Z,1.30
2022-10-01T06:34:14.656Z,1.30
2022-10-01T06:36:44.102Z,0.80
2022-10-01T06:39:13.552Z,1.00
2022-10-01T06:41:43.579Z,1.07
2022-10-01T06:44:14.133Z,0.90
2022-10-01T06:46:43.544Z,1.07
2022-10-01T06:49:13.866Z,1.40
2022-10-01T06:52:01.456Z,1.50
2022-10-01T06:54:30.904Z,1.50
2022-10-01T06:57:00.345Z,1.30
2022-10-01T06:59:29.812Z,2.50
2022-10-01T07:01:59.266Z,2.60
2022-10-01T07:04:28.679Z,1.43
2022-10-01T07:06:58.891Z,2.50
2022-10-01T07:09:28.418Z,1.93
2022-10-01T07:11:57.866Z,2.30
2022-10-01T07:14:27.313Z,2.30
2022-10-01T07:16:56.821Z,2.10
2022-10-01T07:19:26.273Z,1.60
2022-10-01T07:21:55.714Z,2.20
2022-10-01T07:24:25.161Z,1.40
2022-10-01T07:26:55.677Z,2.10
2022-10-01T07:29:25.848Z,1.80
2022-10-01T07:32:01.194Z,2.07
2022-10-01T07:34:33.875Z,2.77
2022-10-01T07:37:04.424Z,2.07
2022-10-01T07:39:34.981Z,2.33
2022-10-01T07:42:04.974Z,2.33
2022-10-01T07:44:34.419Z,2.80
2022-10-01T07:47:04.100Z,3.20
2022-10-01T07:49:34.025Z,2.70
2022-10-01T07:52:04.410Z,2.90
2022-10-01T07:54:33.859Z,2.30
2022-10-01T07:57:03.306Z,2.47
2022-10-01T07:59:33.228Z,2.70
2022-10-01T08:02:02.736Z,2.47
2022-10-01T08:04:49.849Z,2.37
2022-10-01T08:07:19.284Z,1.97
2022-10-01T08:09:49.120Z,1.67
2022-10-01T08:12:19.633Z,2.37
2022-10-01T08:14:49.631Z,2.40
2022-10-01T08:17:19.060Z,2.67
2022-10-01T08:19:48.588Z,3.63
2022-10-01T08:22:18.099Z,2.77
2022-10-01T08:24:47.935Z,2.37
2022-10-01T08:27:17.369Z,2.50
2022-10-01T08:29:46.823Z,3.10
2022-10-01T08:32:16.259Z,2.33
2022-10-01T08:34:46.594Z,2.23
2022-10-01T08:37:16.030Z,2.30
2022-10-01T08:39:45.561Z,1.77
2022-10-01T08:42:49.828Z,2.07
2022-10-01T08:45:43.339Z,2.20
2022-10-01T08:48:58.734Z,1.80
2022-10-01T08:51:33.270Z,1.43
2022-10-01T08:54:36.524Z,2.87
2022-10-01T08:57:12.940Z,2.00
2022-10-01T09:00:05.674Z,1.80
2022-10-01T09:02:39.166Z,1.90
2022-10-01T09:05:21.824Z,2.00
2022-10-01T09:07:58.479Z,3.10
2022-10-01T09:10:42.061Z,1.87
2022-10-01T09:13:51.569Z,1.90
2022-10-01T09:16:43.750Z,1.87
2022-10-01T09:19:52.458Z,1.77
2022-10-01T09:22:32.257Z,2.77
2022-10-01T09:25:27.140Z,2.40
2022-10-01T09:28:24.014Z,1.53
2022-10-01T09:31:06.619Z,1.20
2022-10-01T09:33:40.710Z,0.97
2022-10-01T09:36:29.229Z,1.57
2022-10-01T09:39:15.113Z,1.40
2022-10-01T09:41:46.765Z,2.20
2022-10-01T09:44:31.223Z,2.90
2022-10-01T09:47:01.005Z,1.70
2022-10-01T09:49:39.694Z,1.60
2022-10-01T09:52:13.736Z,2.07
2022-10-01T09:54:56.528Z,2.23
2022-10-01T09:57:33.656Z,1.40
2022-10-01T10:00:21.904Z,1.70
2022-10-01T10:02:55.056Z,2.17
2022-10-01T10:05:28.997Z,1.53
2022-10-01T10:08:06.234Z,2.07
2022-10-01T10:10:40.185Z,1.60
2022-10-01T10:13:14.809Z,1.67
2022-10-01T10:15:59.285Z,2.03
2022-10-01T10:18:40.482Z,1.40
2022-10-01T10:21:18.136Z,1.37
2022-10-01T10:24:00.106Z,1.10
2022-10-01T10:26:42.415Z,1.47
2022-10-01T10:29:16.664Z,1.33
2022-10-01T10:31:49.325Z,1.27
2022-10-01T10:34:39.445Z,1.40
2022-10-01T10:37:15.857Z,1.00
2022-10-01T10:39:52.420Z,1.00
2022-10-01T10:42:25.918Z,1.50
2022-10-01T10:44:59.978Z,1.30
2022-10-01T10:47:31.547Z,1.20
2022-10-01T10:50:06.014Z,2.30
2022-10-01T10:52:43.753Z,1.90
2022-10-01T10:55:32.217Z,1.63
2022-10-01T10:58:16.315Z,1.63
2022-10-01T11:00:52.525Z,1.50
2022-10-01T11:03:31.882Z,2.40
2022-10-01T11:06:05.992Z,1.53
2022-10-01T11:08:35.803Z,1.80
2022-10-01T11:11:18.477Z,1.50
2022-10-01T11:14:03.559Z,1.83
2022-10-01T11:17:07.137Z,1.20
2022-10-01T11:20:07.028Z,1.57
2022-10-01T11:22:51.439Z,1.50
2022-10-01T11:25:53.946Z,1.33
2022-10-01T11:28:46.104Z,1.80
2022-10-01T11:31:51.563Z,1.70
2022-10-01T11:34:47.977Z,2.23
2022-10-01T11:37:41.644Z,1.40
2022-10-01T11:40:36.388Z,1.70
2022-10-01T11:43:26.906Z,1.47
2022-10-01T11:46:03.953Z,1.33
2022-10-01T11:48:51.057Z,1.13
2022-10-01T11:51:27.873Z,1.40
2022-10-01T11:54:01.942Z,1.43
2022-10-01T11:56:59.364Z,1.50
2022-10-01T11:59:50.348Z,1.30
2022-10-01T12:02:28.350Z,1.20
2022-10-01T12:05:18.598Z,1.50
2022-10-01T12:08:02.417Z,1.13
2022-10-01T12:10:58.839Z,1.20
2022-10-01T12:13:40.974Z,0.80
2022-10-01T12:16:33.774Z,1.17
2022-10-01T12:19:13.650Z,0.80
2022-10-01T12:21:53.287Z,1.33
2022-10-01T12:24:36.489Z,0.73
2022-10-01T12:27:29.271Z,0.90
2022-10-01T12:30:22.442Z,0.67
2022-10-01T12:33:38.983Z,1.17
2022-10-01T12:36:21.551Z,0.60
2022-10-01T12:39:25.708Z,0.70
2022-10-01T12:42:19.640Z,0.67
2022-10-01T12:45:13.322Z,0.80
2022-10-01T12:48:06.430Z,0.70
2022-10-01T12:50:55.127Z,1.47
2022-10-01T12:53:40.543Z,0.40
2022-10-01T12:56:28.079Z,0.50
2022-10-01T12:59:27.559Z,0.50
2022-10-01T13:02:30.474Z,0.83
2022-10-01T13:05:47.386Z,1.03
2022-10-01T13:08:27.312Z,1.03
2022-10-01T13:11:03.068Z,0.70
2022-10-01T13:13:35.133Z,0.93
2022-10-01T13:16:14.733Z,0.67
2022-10-01T13:19:14.395Z,1.40
2022-10-01T13:22:23.063Z,0.77
2022-10-01T13:25:06.410Z,1.10
2022-10-01T13:27:46.079Z,0.60
2022-10-01T13:30:23.194Z,0.40
2022-10-01T13:33:00.828Z,0.40
2022-10-01T13:35:39.179Z,0.40
2022-10-01T13:38:30.663Z,0.47
2022-10-01T13:41:06.634Z,0.80
2022-10-01T13:43:37.063Z,0.57
2022-10-01T13:46:11.323Z,0.70
2022-10-01T13:48:48.400Z,1.30
2022-10-01T13:51:18.079Z,0.63
2022-10-01T13:53:53.366Z,1.23
2022-10-01T13:56:37.314Z,0.50
2022-10-01T13:59:34.220Z,0.50
2022-10-01T14:02:06.400Z,0.87
2022-10-01T14:04:43.048Z,0.73
2022-10-01T14:07:22.478Z,0.50
2022-10-01T14:09:59.323Z,0.60
2022-10-01T14:12:53.707Z,0.60
2022-10-01T14:15:44.666Z,0.40
2022-10-01T14:18:21.811Z,0.30
2022-10-01T14:21:07.157Z,0.30
2022-10-01T14:23:46.748Z,0.50
2022-10-01T14:26:55.614Z,0.60
2022-10-01T14:29:32.628Z,0.53
2022-10-01T14:32:33.344Z,0.73
2022-10-01T14:35:26.853Z,1.20
2022-10-01T14:38:06.037Z,0.60
2022-10-01T14:40:44.709Z,0.50
2022-10-01T14:43:25.181Z,0.43
2022-10-01T14:46:01.504Z,0.37
2022-10-01T14:48:34.792Z,0.30
2022-10-01T14:51:07.567Z,0.30
2022-10-01T14:53:41.005Z,0.37
2022-10-01T14:56:14.390Z,1.03
2022-10-01T14:58:57.273Z,0.40
2022-10-01T15:01:27.088Z,0.50
2022-10-01T15:03:56.910Z,0.50
2022-10-01T15:06:30.080Z,0.30
2022-10-01T15:09:15.443Z,0.30
2022-10-01T15:11:47.943Z,0.40
2022-10-01T15:14:24.891Z,0.47
2022-10-01T15:16:54.764Z,0.50
2022-10-01T15:19:25.405Z,0.23
2022-10-01T15:22:01.756Z,0.30
2022-10-01T15:24:40.987Z,0.40
2022-10-01T15:27:14.702Z,0.40
2022-10-01T15:29:45.664Z,0.20
2022-10-01T15:32:23.093Z,0.40
2022-10-01T15:34:57.175Z,0.60
2022-10-01T15:37:38.298Z,0.50
2022-10-01T15:40:14.704Z,0.30
2022-10-01T15:42:48.765Z,0.30
2022-10-01T15:45:26.711Z,0.30
2022-10-01T15:47:59.247Z,0.40
2022-10-01T15:50:39.378Z,0.50
2022-10-01T15:53:21.777Z,0.40
2022-10-01T15:55:56.530Z,0.23
2022-10-01T15:58:39.126Z,0.30
2022-10-01T16:01:12.839Z,0.20
2022-10-01T16:03:55.591Z,0.40
2022-10-01T16:06:44.396Z,0.30
2022-10-01T16:09:23.803Z,0.30
2022-10-01T16:12:12.686Z,0.40
2022-10-01T16:14:45.023Z,0.20
2022-10-01T16:17:27.964Z,0.20
2022-10-01T16:20:01.723Z,0.30
2022-10-01T16:22:37.599Z,0.30
2022-10-01T16:25:12.213Z,0.30
2022-10-01T16:28:01.557Z,0.27
2022-10-01T16:30:32.497Z,0.13
2022-10-01T16:33:06.111Z,0.27
2022-10-01T16:35:38.990Z,0.30
2022-10-01T16:38:09.519Z,0.30
2022-10-01T16:40:47.126Z,0.20
2022-10-01T16:43:24.308Z,0.40
2022-10-01T16:45:53.943Z,0.47
2022-10-01T16:48:24.075Z,0.30
2022-10-01T16:50:53.878Z,0.30
2022-10-01T16:53:24.753Z,0.83
2022-10-01T16:55:56.183Z,0.87
2022-10-01T16:58:27.440Z,1.70
2022-10-01T17:00:57.913Z,0.90
2022-10-01T17:03:27.599Z,1.90
2022-10-01T17:05:57.045Z,2.13
2022-10-01T17:08:26.619Z,1.53
2022-10-01T17:11:00.359Z,1.33
2022-10-01T17:13:34.039Z,1.23
2022-10-01T17:16:05.850Z,2.07
2022-10-01T17:18:35.369Z,1.50
2022-10-01T17:21:06.033Z,1.50
2022-10-01T17:23:36.173Z,0.97
2022-10-01T17:26:10.407Z,0.87
2022-10-01T17:28:39.895Z,0.73
2022-10-01T17:31:12.262Z,0.80
2022-10-01T17:33:40.787Z,0.80
2022-10-01T17:36:11.000Z,0.50
2022-10-01T17:38:40.831Z,1.50
2022-10-01T17:41:10.272Z,1.23
2022-10-01T17:43:41.299Z,1.50
2022-10-01T17:46:10.874Z,2.00
2022-10-01T17:48:41.016Z,1.73
2022-10-01T17:51:14.266Z,1.53
2022-10-01T17:53:43.729Z,0.80
2022-10-01T17:56:17.905Z,0.67
2022-10-01T17:58:48.010Z,0.73
2022-10-01T18:01:21.971Z,0.63
2022-10-01T18:03:57.567Z,0.50
2022-10-01T18:06:29.420Z,0.73
2022-10-01T18:08:58.983Z,0.60
2022-10-01T18:11:30.194Z,0.60
2022-10-01T18:14:00.367Z,0.57
2022-10-01T18:16:30.212Z,0.50
2022-10-01T18:21:33.946Z,0.43
2022-10-01T18:24:04.961Z,0.50
2022-10-01T18:26:35.017Z,0.30
2022-10-01T18:29:04.776Z,0.70
2022-10-01T18:31:41.104Z,0.27
2022-10-01T18:34:20.760Z,0.57
2022-10-01T18:37:09.366Z,0.40
2022-10-01T18:39:52.629Z,0.30
2022-10-01T18:42:42.155Z,0.30
2022-10-01T18:45:22.546Z,0.57
2022-10-01T18:48:11.608Z,0.60
2022-10-01T18:51:17.123Z,0.60
2022-10-01T18:54:12.380Z,0.50
2022-10-01T18:56:49.363Z,0.43
2022-10-01T18:59:40.738Z,0.43
2022-10-01T19:02:49.489Z,0.50
2022-10-01T19:05:53.735Z,0.60
2022-10-01T19:09:07.461Z,0.87
2022-10-01T19:11:59.580Z,0.80
2022-10-01T19:15:01.694Z,0.60
2022-10-01T19:17:50.366Z,0.70
2022-10-01T19:20:51.349Z,0.70
2022-10-01T19:23:52.242Z,0.83
2022-10-01T19:26:28.889Z,0.70
2022-10-01T19:29:14.820Z,0.70
2022-10-01T19:31:51.731Z,0.90
2022-10-01T19:34:40.452Z,0.77
2022-10-01T19:37:32.252Z,1.10
2022-10-01T19:40:25.512Z,0.53
2022-10-01T19:43:05.062Z,0.40
2022-10-01T19:45:51.078Z,0.70
2022-10-01T19:48:51.741Z,0.70
2022-10-01T19:51:28.450Z,0.50
2022-10-01T19:54:01.438Z,0.73
2022-10-01T19:56:38.398Z,0.47
2022-10-01T19:59:20.676Z,0.40
2022-10-01T20:01:59.247Z,0.50
2022-10-01T20:04:41.063Z,0.40
2022-10-01T20:07:26.661Z,0.40
2022-10-01T20:10:06.503Z,0.40
2022-10-01T20:12:52.053Z,0.30
2022-10-01T20:15:56.096Z,0.30
2022-10-01T20:18:32.812Z,0.33
2022-10-01T20:21:31.120Z,0.37
2022-10-01T20:24:33.940Z,0.30
2022-10-01T20:27:30.415Z,0.30
2022-10-01T20:30:20.079Z,0.30
2022-10-01T20:33:01.459Z,0.40
2022-10-01T20:35:53.697Z,0.50
2022-10-01T20:38:53.467Z,0.30
2022-10-01T20:41:26.095Z,0.20
2022-10-01T20:44:02.736Z,0.30
2022-10-01T20:46:49.526Z,0.30
2022-10-01T20:49:29.645Z,0.60
2022-10-01T20:52:20.988Z,0.50
2022-10-01T20:54:53.896Z,0.60
2022-10-01T20:57:39.858Z,0.33
2022-10-01T21:00:28.514Z,0.40
2022-10-01T21:03:26.997Z,0.30
2022-10-01T21:06:05.619Z,1.20
2022-10-01T21:08:51.669Z,0.20
2022-10-01T21:11:31.189Z,0.20
2022-10-01T21:14:37.039Z,0.27
2022-10-01T21:17:13.620Z,0.47
2022-10-01T21:19:56.289Z,0.83
2022-10-01T21:22:50.640Z,1.20
2022-10-01T21:25:35.810Z,0.30
2022-10-01T21:28:18.673Z,0.30
2022-10-01T21:31:15.471Z,0.37
2022-10-01T21:34:00.819Z,0.50
2022-10-01T21:36:37.840Z,0.63
2022-10-01T21:39:12.323Z,0.67
2022-10-01T21:41:48.027Z,0.97
2022-10-01T21:45:02.549Z,0.23
2022-10-01T21:47:56.384Z,0.43
2022-10-01T21:50:42.710Z,0.57
2022-10-01T21:53:49.837Z,0.60
2022-10-01T21:56:41.477Z,0.40
2022-10-01T21:59:39.891Z,0.30
2022-10-01T22:02:30.232Z,0.40
2022-10-01T22:05:13.084Z,0.70
2022-10-01T22:07:47.149Z,1.07
2022-10-01T22:10:26.930Z,0.33
2022-10-01T22:13:01.041Z,0.77
2022-10-01T22:15:42.551Z,0.40
2022-10-01T22:18:35.641Z,0.43
2022-10-01T22:21:12.462Z,0.60
2022-10-01T22:23:49.321Z,1.13
2022-10-01T22:26:23.597Z,0.70
2022-10-01T22:28:56.636Z,0.50
2022-10-01T22:31:33.724Z,0.70
2022-10-01T22:34:25.789Z,0.33
2022-10-01T22:37:21.812Z,0.53
2022-10-01T22:39:55.861Z,0.40
2022-10-01T22:42:36.146Z,0.70
2022-10-01T22:45:18.591Z,0.60
2022-10-01T22:48:06.829Z,0.50
2022-10-01T22:50:55.906Z,0.50
2022-10-01T22:53:36.050Z,0.63
2022-10-01T22:56:06.669Z,0.40
2022-10-01T22:59:10.870Z,0.23
2022-10-01T23:02:15.149Z,0.60
2022-10-01T23:05:00.439Z,0.60
2022-10-01T23:07:58.557Z,0.20
2022-10-01T23:10:50.338Z,0.40
2022-10-01T23:13:36.170Z,0.53
2022-10-01T23:16:37.959Z,0.27
2022-10-01T23:19:43.763Z,0.40
2022-10-01T23:22:26.785Z,0.53
2022-10-01T23:25:06.731Z,0.40
2022-10-01T23:27:55.072Z,0.20
2022-10-01T23:30:24.851Z,0.43
2022-10-01T23:33:22.775Z,0.43
2022-10-01T23:36:14.851Z,0.30
2022-10-01T23:39:10.901Z,0.30
2022-10-01T23:42:02.877Z,0.30
2022-10-01T23:44:49.978Z,0.30
2022-10-01T23:47:26.754Z,0.20
2022-10-01T23:50:00.002Z,1.20
2022-10-01T23:52:45.291Z,0.30
2022-10-01T23:55:40.186Z,0.20
2022-10-01T23:58:14.295Z,0.20
